Time;durP1;ratioP1;P1;durP2;ratioP2;P2;SDS_P1;SDS_P2;PMS_P1;PMS_P2;Temp;Humidity;BMP_temperature;BMP_pressure;BME280_temperature;BME280_humidity;BME280_pressure;Samples;Min_cycle;Max_cycle;Signal;HPM_P1;HPM_P2
2023/09/06 00:00:59;;;;;;;;;;;;;;;19.32;58.29;100230.72;1086446;47;20866;-80
2023/09/06 00:01:59;;;;;;;;;;;;;;;19.32;58.35;100230.72;1086069;47;19977;-79
2023/09/06 00:03:03;;;;;;;;;;;;;;;19.26;58.29;100232.34;1086412;47;19958;-80
2023/09/06 00:04:04;;;;;;;;;;;;;;;19.35;58.10;100226.75;1086488;47;19951;-80
2023/09/06 00:05:08;;;;;;;;;;;;;;;19.35;57.90;100230.34;1086709;39;20732;-79
2023/09/06 00:06:11;;;;;;;;;;;;;;;19.39;57.60;100231.59;1086338;54;19981;-79
2023/09/06 00:07:11;;;;;;;;;;;;;;;19.33;57.05;100232.41;1086711;47;19942;-78
2023/09/06 00:08:16;;;;;;;;;;;;;;;19.29;57.24;100234.66;1086030;54;20798;-80
2023/09/06 00:09:17;;;;;;;;;;;;;;;19.23;56.55;100231.91;1085507;47;19946;-79
2023/09/06 00:10:20;;;;;;;;;;;;;;;19.23;56.27;100238.16;1085543;47;19962;-79
2023/09/06 00:11:20;;;;;;;;;;;;;;;19.24;56.38;100228.16;1086178;54;19950;-79
2023/09/06 00:12:24;;;;;;;;;;;;;;;19.27;56.14;100236.72;1086894;39;20327;-80
2023/09/06 00:13:24;;;;;;;;;;;;;;;19.26;55.71;100226.91;1085882;46;19942;-80
2023/09/06 00:14:29;;;;;;;;;;;;;;;19.20;56.22;100229.56;1085876;47;19971;-79
2023/09/06 00:15:30;;;;;;;;;;;;;;;19.14;55.50;100229.34;1085518;47;19943;-79
2023/09/06 00:16:33;;;;;;;;;;;;;;;19.12;55.64;100227.88;1085286;47;19975;-79
2023/09/06 00:17:37;;;;;;;;;;;;;;;19.11;55.28;100228.91;1085998;54;19955;-79
2023/09/06 00:18:40;;;;;;;;;;;;;;;19.04;55.75;100228.00;1085866;46;19998;-79
2023/09/06 00:19:42;;;;;;;;;;;;;;;19.05;55.75;100226.97;1085898;47;19950;-80
2023/09/06 00:20:51;;;;;;;;;;;;;;;19.07;55.28;100233.03;1085753;54;19972;-80
2023/09/06 00:21:54;;;;;;;;;;;;;;;19.02;55.24;100228.19;1085618;54;19947;-79
2023/09/06 00:22:58;;;;;;;;;;;;;;;19.01;55.28;100229.22;1085250;47;19950;-78
2023/09/06 00:23:59;;;;;;;;;;;;;;;19.01;55.52;100229.22;1084737;47;19951;-80
2023/09/06 00:25:02;;;;;;;;;;;;;;;19.04;55.44;100228.84;1084700;54;19946;-81
2023/09/06 00:26:03;;;;;;;;;;;;;;;19.08;55.45;100227.41;1085734;39;20484;-79
2023/09/06 00:27:04;;;;;;;;;;;;;;;19.10;55.28;100222.63;1085161;54;19946;-80
2023/09/06 00:28:08;;;;;;;;;;;;;;;19.09;55.13;100222.84;1084669;47;19950;-80
2023/09/06 00:29:09;;;;;;;;;;;;;;;19.12;55.33;100217.03;1084790;54;19954;-79
2023/09/06 00:30:10;;;;;;;;;;;;;;;19.11;55.18;100220.78;1084962;47;20865;-80
2023/09/06 00:31:13;;;;;;;;;;;;;;;19.15;55.30;100220.19;1084919;47;19954;-79
2023/09/06 00:32:14;;;;;;;;;;;;;;;19.20;54.98;100218.75;1084772;47;19958;-80
2023/09/06 00:33:17;;;;;;;;;;;;;;;19.15;54.76;100219.34;1085535;39;20750;-79
2023/09/06 00:34:18;;;;;;;;;;;;;;;19.15;54.75;100222.91;1084824;46;19950;-80
2023/09/06 00:35:19;;;;;;;;;;;;;;;19.14;55.08;100221.22;1085271;39;20504;-80
2023/09/06 00:36:22;;;;;;;;;;;;;;;19.13;54.54;100221.38;1084563;47;19958;-79
2023/09/06 00:37:33;;;;;;;;;;;;;;;19.09;54.56;100215.53;1085029;47;20817;-79
2023/09/06 00:38:36;;;;;;;;;;;;;;;19.07;54.75;100219.47;1085163;54;19969;-79
2023/09/06 00:39:38;;;;;;;;;;;;;;;19.02;54.74;100220.06;1085952;47;19950;-80
2023/09/06 00:40:42;;;;;;;;;;;;;;;19.08;54.92;100219.28;1088309;31;20511;-79
2023/09/06 00:41:44;;;;;;;;;;;;;;;19.00;54.90;100214.84;1086617;47;19970;-79
2023/09/06 00:42:48;;;;;;;;;;;;;;;19.01;54.94;100216.53;1086730;46;19946;-80
2023/09/06 00:43:48;;;;;;;;;;;;;;;18.97;54.73;100215.25;1087040;47;19973;-79
2023/09/06 00:44:51;;;;;;;;;;;;;;;18.98;54.67;100222.34;1086805;47;19975;-81
2023/09/06 00:45:54;;;;;;;;;;;;;;;19.00;54.56;100220.28;1086689;47;19950;-82
2023/09/06 00:46:55;;;;;;;;;;;;;;;19.05;54.45;100213.41;1086871;47;20034;-79
2023/09/06 00:47:58;;;;;;;;;;;;;;;19.02;54.22;100220.94;1087088;47;20038;-79
2023/09/06 00:49:00;;;;;;;;;;;;;;;18.96;54.46;100215.44;1087123;54;19993;-81
2023/09/06 00:50:04;;;;;;;;;;;;;;;19.02;54.58;100218.22;1087327;54;19943;-80
2023/09/06 00:51:07;;;;;;;;;;;;;;;19.00;54.51;100220.28;1087635;47;20473;-82
2023/09/06 00:52:10;;;;;;;;;;;;;;;18.94;54.70;100218.34;1087280;47;19945;-79
2023/09/06 00:53:13;;;;;;;;;;;;;;;18.98;54.64;100207.97;1087563;54;19954;-79
2023/09/06 00:54:17;;;;;;;;;;;;;;;19.01;54.86;100218.38;1087518;47;19942;-80
2023/09/06 00:55:20;;;;;;;;;;;;;;;19.04;54.68;100218.00;1087441;54;19973;-79
2023/09/06 00:56:24;;;;;;;;;;;;;;;19.05;55.16;100216.97;1087747;54;19947;-81
2023/09/06 00:57:25;;;;;;;;;;;;;;;19.01;55.03;100212.97;1087397;47;19942;-78
2023/09/06 00:58:29;;;;;;;;;;;;;;;18.84;54.97;100213.22;1087673;54;20691;-78
2023/09/06 00:59:31;;;;;;;;;;;;;;;18.79;55.40;100215.69;1087527;47;19950;-80
2023/09/06 01:00:35;;;;;;;;;;;;;;;18.86;55.92;100218.44;1087138;47;19976;-80
2023/09/06 01:01:35;;;;;;;;;;;;;;;18.85;55.44;100225.75;1087276;54;19942;-81
2023/09/06 01:02:39;;;;;;;;;;;;;;;18.90;55.98;100216.19;1087400;54;19950;-80
2023/09/06 01:03:40;;;;;;;;;;;;;;;18.83;55.43;100216.97;1087381;54;19938;-79
2023/09/06 01:04:43;;;;;;;;;;;;;;;18.81;55.49;100219.03;1087336;54;19973;-82
2023/09/06 01:05:46;;;;;;;;;;;;;;;18.85;55.39;100209.50;1086984;46;19950;-79
2023/09/06 01:06:55;;;;;;;;;;;;;;;18.90;55.37;100211.63;1087036;47;19968;-78
2023/09/06 01:07:59;;;;;;;;;;;;;;;18.93;55.55;100211.25;1086934;54;19950;-79
2023/09/06 01:09:06;;;;;;;;;;;;;;;18.88;56.04;100218.28;1086882;47;19942;-78
2023/09/06 01:10:07;;;;;;;;;;;;;;;18.90;55.99;100208.06;1086686;47;19950;-80
2023/09/06 01:11:14;;;;;;;;;;;;;;;18.86;56.72;100211.16;1086753;47;19950;-79
2023/09/06 01:12:15;;;;;;;;;;;;;;;18.78;57.49;100218.59;1086832;47;19942;-78
2023/09/06 01:13:18;;;;;;;;;;;;;;;18.70;57.53;100214.16;1086891;47;19962;-79
2023/09/06 01:14:19;;;;;;;;;;;;;;;18.70;57.40;100216.88;1086798;47;20006;-79
2023/09/06 01:15:22;;;;;;;;;;;;;;;18.75;56.77;100219.81;1086975;54;19943;-80
2023/09/06 01:16:25;;;;;;;;;;;;;;;18.70;56.43;100222.28;1086725;47;19966;-80
2023/09/06 01:17:30;;;;;;;;;;;;;;;18.69;56.47;100220.59;1086902;47;20018;-79
2023/09/06 01:18:31;;;;;;;;;;;;;;;18.54;56.66;100223.38;1086887;46;19943;-79
2023/09/06 01:19:35;;;;;;;;;;;;;;;18.46;56.00;100223.50;1087721;39;20821;-80
2023/09/06 01:20:40;;;;;;;;;;;;;;;18.40;56.24;100223.22;1086698;47;20033;-79
2023/09/06 01:21:48;;;;;;;;;;;;;;;18.36;56.19;100221.09;1086067;54;19946;-79
2023/09/06 01:22:51;;;;;;;;;;;;;;;18.35;56.07;100227.53;1084927;47;19951;-79
2023/09/06 01:23:55;;;;;;;;;;;;;;;18.29;55.97;100221.00;1084443;47;19950;-80
2023/09/06 01:24:58;;;;;;;;;;;;;;;18.28;56.23;100219.34;1085163;54;20034;-80
2023/09/06 01:25:59;;;;;;;;;;;;;;;18.26;56.01;100216.00;1084808;47;19997;-80
2023/09/06 01:27:04;;;;;;;;;;;;;;;18.27;56.24;100224.94;1084864;47;19946;-80
2023/09/06 01:28:05;;;;;;;;;;;;;;;18.22;56.31;100231.78;1084987;54;20454;-79
2023/09/06 01:29:09;;;;;;;;;;;;;;;18.22;56.34;100228.22;1083677;47;20061;-79
2023/09/06 01:30:11;;;;;;;;;;;;;;;18.20;56.26;100230.28;1083972;47;19981;-79
2023/09/06 01:31:14;;;;;;;;;;;;;;;18.21;56.42;100230.09;1083910;47;19987;-80
2023/09/06 01:32:15;;;;;;;;;;;;;;;18.17;56.05;100228.78;1083609;47;19962;-80
2023/09/06 01:33:18;;;;;;;;;;;;;;;18.19;56.44;100232.16;1084207;47;19954;-79
2023/09/06 01:34:19;;;;;;;;;;;;;;;18.16;56.03;100227.13;1084629;47;19950;-80
2023/09/06 01:35:22;;;;;;;;;;;;;;;18.17;56.44;100231.50;1084590;54;19985;-79
2023/09/06 01:36:22;;;;;;;;;;;;;;;18.18;56.25;100229.66;1084013;47;19951;-80
2023/09/06 01:37:26;;;;;;;;;;;;;;;18.14;56.20;100225.63;1084181;39;20474;-79
2023/09/06 01:38:26;;;;;;;;;;;;;;;18.13;56.30;100230.22;1084630;54;19969;-80
2023/09/06 01:39:32;;;;;;;;;;;;;;;18.12;56.29;100228.53;1084905;39;20474;-79
2023/09/06 01:40:33;;;;;;;;;;;;;;;18.10;56.27;100230.59;1084050;54;19950;-79
2023/09/06 01:41:36;;;;;;;;;;;;;;;18.05;56.72;100224.91;1083765;54;19947;-80
2023/09/06 01:42:36;;;;;;;;;;;;;;;18.00;56.73;100224.63;1083939;54;19950;-79
2023/09/06 01:43:40;;;;;;;;;;;;;;;17.98;56.82;100223.97;1083841;54;19950;-78
2023/09/06 01:44:40;;;;;;;;;;;;;;;17.99;56.46;100220.25;1083856;47;19946;-79
2023/09/06 01:45:43;;;;;;;;;;;;;;;18.01;56.70;100218.22;1084055;54;19962;-79
2023/09/06 01:46:46;;;;;;;;;;;;;;;18.04;56.77;100210.53;1084134;46;19958;-80
2023/09/06 01:47:48;;;;;;;;;;;;;;;17.97;56.57;100212.34;1083492;47;19950;-80
2023/09/06 01:48:51;;;;;;;;;;;;;;;18.01;56.71;100210.09;1083942;47;19947;-79
2023/09/06 01:49:51;;;;;;;;;;;;;;;18.04;56.60;100220.53;1083747;47;19951;-80
2023/09/06 01:50:56;;;;;;;;;;;;;;;18.01;56.79;100219.03;1084384;47;20013;-80
2023/09/06 01:51:57;;;;;;;;;;;;;;;17.93;56.68;100219.97;1084921;39;20704;-79
2023/09/06 01:53:02;;;;;;;;;;;;;;;17.91;56.86;100218.44;1084571;47;20058;-80
2023/09/06 01:54:04;;;;;;;;;;;;;;;17.90;56.98;100219.50;1084783;47;19971;-80
2023/09/06 01:55:11;;;;;;;;;;;;;;;17.96;56.97;100213.38;1084892;47;19998;-80
2023/09/06 01:56:13;;;;;;;;;;;;;;;17.91;56.82;100219.31;1084707;47;20029;-79
2023/09/06 01:57:17;;;;;;;;;;;;;;;17.91;57.07;100216.59;1084591;47;20493;-79
2023/09/06 01:58:18;;;;;;;;;;;;;;;17.92;57.09;100210.19;1084912;47;19946;-79
2023/09/06 01:59:21;;;;;;;;;;;;;;;17.92;56.97;100212.88;1084447;54;19971;-78
2023/09/06 02:00:23;;;;;;;;;;;;;;;17.96;56.89;100218.78;1084380;54;19946;-80
2023/09/06 02:01:27;;;;;;;;;;;;;;;18.02;56.86;100215.31;1085167;47;20085;-79
2023/09/06 02:02:27;;;;;;;;;;;;;;;17.98;57.23;100208.63;1085305;47;19950;-79
2023/09/06 02:03:31;;;;;;;;;;;;;;;17.97;57.16;100209.63;1086897;54;19943;-79
2023/09/06 02:04:32;;;;;;;;;;;;;;;17.94;57.36;100215.38;1086837;47;19946;-79
2023/09/06 02:05:36;;;;;;;;;;;;;;;17.97;57.07;100216.91;1085988;54;19951;-78
2023/09/06 02:06:36;;;;;;;;;;;;;;;17.97;57.38;100214.19;1083682;47;19947;-79
2023/09/06 02:07:37;;;;;;;;;;;;;;;18.00;56.91;100221.94;1083948;47;20825;-80
2023/09/06 02:08:40;;;;;;;;;;;;;;;17.97;57.14;100215.03;1083868;54;19998;-78
2023/09/06 02:09:41;;;;;;;;;;;;;;;17.99;56.97;100214.84;1083874;54;20011;-79
2023/09/06 02:10:47;;;;;;;;;;;;;;;18.00;57.06;100216.53;1084003;47;19971;-78
2023/09/06 02:11:47;;;;;;;;;;;;;;;18.01;56.86;100218.22;1084059;47;20564;-78
2023/09/06 02:12:51;;;;;;;;;;;;;;;17.96;57.09;100212.47;1083665;54;19975;-79
2023/09/06 02:13:52;;;;;;;;;;;;;;;17.98;57.01;100213.16;1084570;54;19974;-78
2023/09/06 02:14:56;;;;;;;;;;;;;;;18.03;57.12;100210.75;1084843;54;19946;-79
2023/09/06 02:15:56;;;;;;;;;;;;;;;18.00;56.95;100216.53;1084719;47;19957;-79
2023/09/06 02:16:59;;;;;;;;;;;;;;;17.92;56.81;100210.19;1084297;47;19976;-79
2023/09/06 02:18:00;;;;;;;;;;;;;;;17.88;57.04;100210.75;1085112;39;20002;-79
2023/09/06 02:19:05;;;;;;;;;;;;;;;17.89;57.06;100210.53;1084880;47;19974;-79
2023/09/06 02:20:13;;;;;;;;;;;;;;;17.91;57.29;100207.63;1084081;46;19975;-80
2023/09/06 02:21:16;;;;;;;;;;;;;;;17.86;57.27;100208.19;1084080;47;20068;-80
2023/09/06 02:22:18;;;;;;;;;;;;;;;17.84;57.41;100207.56;1084245;47;19947;-79
2023/09/06 02:23:21;;;;;;;;;;;;;;;17.78;57.44;100211.00;1084370;54;19951;-80
2023/09/06 02:24:22;;;;;;;;;;;;;;;17.74;57.80;100201.63;1086109;47;19974;-79
2023/09/06 02:25:24;;;;;;;;;;;;;;;17.73;57.51;100202.66;1084722;47;19971;-79
2023/09/06 02:26:30;;;;;;;;;;;;;;;17.71;57.42;100202.00;1084611;54;19974;-79
2023/09/06 02:27:31;;;;;;;;;;;;;;;17.69;57.74;100204.88;1084648;47;19954;-79
2023/09/06 02:28:35;;;;;;;;;;;;;;;17.69;57.78;100204.03;1084475;47;19954;-80
2023/09/06 02:29:36;;;;;;;;;;;;;;;17.78;57.57;100202.91;1084665;54;19954;-79
2023/09/06 02:30:41;;;;;;;;;;;;;;;17.83;57.13;100205.91;1083385;54;19955;-78
2023/09/06 02:31:44;;;;;;;;;;;;;;;17.87;57.17;100198.25;1083559;47;19954;-79
2023/09/06 02:32:45;;;;;;;;;;;;;;;17.90;56.90;100201.41;1083329;47;19983;-79
2023/09/06 02:33:48;;;;;;;;;;;;;;;17.88;57.50;100203.44;1083423;47;19953;-79
2023/09/06 02:34:48;;;;;;;;;;;;;;;17.92;56.85;100196.66;1083971;54;20532;-79
2023/09/06 02:35:52;;;;;;;;;;;;;;;17.92;57.39;100191.25;1083915;47;19946;-79
2023/09/06 02:36:52;;;;;;;;;;;;;;;17.87;57.06;100190.13;1084202;47;19950;-79
2023/09/06 02:37:56;;;;;;;;;;;;;;;17.85;57.38;100197.59;1083542;47;19950;-79
2023/09/06 02:38:57;;;;;;;;;;;;;;;17.84;57.25;100194.06;1083881;54;19951;-79
2023/09/06 02:40:00;;;;;;;;;;;;;;;17.80;57.26;100194.63;1083974;47;19954;-78
2023/09/06 02:41:01;;;;;;;;;;;;;;;17.79;57.24;100193.78;1084047;47;19970;-80
2023/09/06 02:42:07;;;;;;;;;;;;;;;17.82;57.55;100195.25;1083276;47;19958;-80
2023/09/06 02:43:10;;;;;;;;;;;;;;;17.75;57.63;100193.31;1084487;39;20709;-81
2023/09/06 02:44:13;;;;;;;;;;;;;;;17.73;57.72;100200.75;1085532;47;19962;-78
2023/09/06 02:45:14;;;;;;;;;;;;;;;17.76;57.43;100199.53;1084739;47;19960;-80
2023/09/06 02:46:18;;;;;;;;;;;;;;;17.73;57.49;100202.66;1085083;39;20515;-78
2023/09/06 02:47:25;;;;;;;;;;;;;;;17.74;57.44;100201.63;1083862;54;19970;-79
2023/09/06 02:48:29;;;;;;;;;;;;;;;17.74;57.60;100202.44;1083687;47;20010;-79
2023/09/06 02:49:29;;;;;;;;;;;;;;;17.77;57.55;100198.53;1084432;39;20772;-78
2023/09/06 02:50:30;;;;;;;;;;;;;;;17.79;57.52;100199.19;1084239;46;19950;-79
2023/09/06 02:51:33;;;;;;;;;;;;;;;17.84;57.14;100201.31;1084174;47;19958;-79
2023/09/06 02:52:35;;;;;;;;;;;;;;;17.78;58.21;100203.75;1084233;47;19950;-79
2023/09/06 02:53:44;;;;;;;;;;;;;;;17.52;60.17;100204.22;1084598;54;20014;-78
2023/09/06 02:54:44;;;;;;;;;;;;;;;17.28;61.98;100203.50;1084959;39;20714;-80
2023/09/06 02:55:48;;;;;;;;;;;;;;;17.18;61.67;100202.91;1083727;47;19957;-79
2023/09/06 02:56:48;;;;;;;;;;;;;;;17.17;62.02;100212.03;1083610;47;20664;-79
2023/09/06 02:57:56;;;;;;;;;;;;;;;17.10;62.53;100217.34;1083476;47;20002;-80
2023/09/06 02:58:59;;;;;;;;;;;;;;;16.95;63.44;100219.19;1083751;47;19947;-79
2023/09/06 03:00:17;;;;;;;;;;;;;;;16.85;63.96;100219.38;1083698;47;19971;-78
2023/09/06 03:01:19;;;;;;;;;;;;;;;16.77;64.52;100222.16;1083923;54;20435;-78
2023/09/06 03:02:22;;;;;;;;;;;;;;;16.68;64.73;100218.66;1083857;54;19957;-78
2023/09/06 03:03:26;;;;;;;;;;;;;;;16.58;65.36;100218.09;1083908;47;19950;-79
2023/09/06 03:04:33;;;;;;;;;;;;;;;16.50;65.87;100233.31;1083924;46;19950;-79
2023/09/06 03:05:40;;;;;;;;;;;;;;;16.51;65.88;100234.16;1084353;39;20861;-78
2023/09/06 03:06:43;;;;;;;;;;;;;;;16.47;66.01;100228.28;1083890;47;19954;-78
2023/09/06 03:07:45;;;;;;;;;;;;;;;16.35;66.28;100230.53;1083983;46;19975;-79
2023/09/06 03:08:48;;;;;;;;;;;;;;;16.33;67.09;100224.50;1083918;47;19950;-78
2023/09/06 03:09:49;;;;;;;;;;;;;;;16.21;67.25;100224.03;1083957;47;19946;-80
2023/09/06 03:10:52;;;;;;;;;;;;;;;16.18;67.27;100229.81;1084229;54;19997;-78
2023/09/06 03:11:53;;;;;;;;;;;;;;;16.19;66.82;100227.94;1084071;54;19950;-79
2023/09/06 03:13:00;;;;;;;;;;;;;;;16.16;67.02;100225.59;1083864;54;19971;-79
2023/09/06 03:14:02;;;;;;;;;;;;;;;16.12;67.39;100224.28;1084118;54;19975;-79
2023/09/06 03:15:08;;;;;;;;;;;;;;;16.14;67.31;100223.06;1083721;54;20679;-79
2023/09/06 03:16:13;;;;;;;;;;;;;;;16.08;67.66;100229.19;1083921;47;19954;-79
2023/09/06 03:17:18;;;;;;;;;;;;;;;15.99;67.97;100233.78;1084097;54;20000;-79
2023/09/06 03:18:19;;;;;;;;;;;;;;;15.95;68.17;100240.53;1084084;39;20474;-79
2023/09/06 03:19:22;;;;;;;;;;;;;;;15.93;68.19;100231.78;1084570;54;20029;-80
2023/09/06 03:20:31;;;;;;;;;;;;;;;15.93;68.28;100236.31;1084546;47;20022;-79
2023/09/06 03:21:35;;;;;;;;;;;;;;;15.85;68.48;100227.25;1083903;47;20038;-79
2023/09/06 03:22:37;;;;;;;;;;;;;;;15.82;68.43;100232.97;1084765;47;19951;-79
2023/09/06 03:23:44;;;;;;;;;;;;;;;15.80;68.83;100231.47;1084486;39;20442;-78
2023/09/06 03:24:45;;;;;;;;;;;;;;;15.79;68.46;100225.25;1083778;54;19957;-79
2023/09/06 03:25:47;;;;;;;;;;;;;;;15.78;68.85;100234.34;1083856;47;19972;-78
2023/09/06 03:26:51;;;;;;;;;;;;;;;15.82;68.54;100234.81;1083937;47;20011;-79
2023/09/06 03:27:54;;;;;;;;;;;;;;;15.85;68.23;100231.81;1084141;47;20042;-78
2023/09/06 03:29:00;;;;;;;;;;;;;;;15.83;68.40;100233.81;1084194;46;19962;-79
2023/09/06 03:30:00;;;;;;;;;;;;;;;15.82;68.28;100234.81;1084057;47;20916;-79
2023/09/06 03:31:03;;;;;;;;;;;;;;;15.79;68.94;100235.16;1084299;47;19950;-78
2023/09/06 03:32:07;;;;;;;;;;;;;;;15.74;69.08;100241.06;1084321;54;19954;-80
2023/09/06 03:33:10;;;;;;;;;;;;;;;15.72;69.43;100240.44;1085076;39;20382;-79
2023/09/06 03:34:13;;;;;;;;;;;;;;;15.66;69.80;100241.97;1084294;39;20536;-80
2023/09/06 03:35:17;;;;;;;;;;;;;;;15.61;69.94;100247.00;1083902;47;20014;-79
2023/09/06 03:36:24;;;;;;;;;;;;;;;15.57;70.16;100233.06;1083906;54;20612;-79
2023/09/06 03:37:30;;;;;;;;;;;;;;;15.62;70.15;100239.78;1084402;47;20000;-79
2023/09/06 03:38:33;;;;;;;;;;;;;;;15.55;70.27;100239.63;1085125;39;20406;-78
2023/09/06 03:39:37;;;;;;;;;;;;;;;15.49;70.52;100241.16;1084972;54;20651;-79
2023/09/06 03:40:42;;;;;;;;;;;;;;;15.44;70.55;100238.16;1083992;47;20579;-78
2023/09/06 03:41:42;;;;;;;;;;;;;;;15.41;70.78;100239.31;1084217;47;19995;-78
2023/09/06 03:42:43;;;;;;;;;;;;;;;15.37;70.98;100237.13;1084267;47;20579;-78
2023/09/06 03:43:46;;;;;;;;;;;;;;;15.30;71.05;100237.00;1084006;47;20034;-79
2023/09/06 03:44:49;;;;;;;;;;;;;;;15.31;71.23;100240.53;1084670;47;19946;-80
2023/09/06 03:45:55;;;;;;;;;;;;;;;15.27;71.02;100240.84;1083907;47;19953;-79
2023/09/06 03:46:56;;;;;;;;;;;;;;;15.29;71.32;100236.16;1084119;54;19970;-79
2023/09/06 03:47:57;;;;;;;;;;;;;;;15.21;71.26;100243.41;1084608;47;19946;-78
2023/09/06 03:49:00;;;;;;;;;;;;;;;15.15;71.84;100236.00;1084391;47;20022;-78
2023/09/06 03:50:01;;;;;;;;;;;;;;;15.15;71.47;100238.69;1084247;47;20029;-78
2023/09/06 03:51:05;;;;;;;;;;;;;;;15.16;71.63;100243.91;1084155;47;19950;-79
2023/09/06 03:52:06;;;;;;;;;;;;;;;15.12;72.01;100235.31;1084111;54;19946;-79
2023/09/06 03:53:09;;;;;;;;;;;;;;;15.12;71.90;100240.72;1084810;47;19950;-79
2023/09/06 03:54:10;;;;;;;;;;;;;;;15.17;72.03;100234.81;1084057;47;19950;-79
2023/09/06 03:55:11;;;;;;;;;;;;;;;15.18;71.53;100233.81;1083955;54;19946;-78
2023/09/06 03:56:14;;;;;;;;;;;;;;;15.20;71.48;100242.56;1084064;54;19951;-79
2023/09/06 03:57:14;;;;;;;;;;;;;;;15.15;72.05;100222.53;1084804;54;19946;-80
2023/09/06 03:58:18;;;;;;;;;;;;;;;15.16;72.07;100229.59;1084354;47;20509;-78
2023/09/06 03:59:18;;;;;;;;;;;;;;;15.19;71.94;100240.06;1084446;39;20705;-79
2023/09/06 04:00:29;;;;;;;;;;;;;;;15.20;71.76;100228.28;1083832;47;19977;-78
2023/09/06 04:01:32;;;;;;;;;;;;;;;15.16;72.10;100229.59;1084937;39;20762;-78
2023/09/06 04:02:36;;;;;;;;;;;;;;;15.17;72.09;100234.00;1084623;54;19954;-78
2023/09/06 04:03:38;;;;;;;;;;;;;;;15.11;72.26;100233.63;1084100;47;19946;-78
2023/09/06 04:04:41;;;;;;;;;;;;;;;15.08;72.31;100230.44;1084033;47;20418;-79
2023/09/06 04:05:42;;;;;;;;;;;;;;;15.07;72.13;100226.06;1084033;54;20029;-79
2023/09/06 04:06:45;;;;;;;;;;;;;;;15.01;72.54;100233.00;1083595;47;19958;-79
2023/09/06 04:07:46;;;;;;;;;;;;;;;15.00;72.54;100225.06;1084490;54;19974;-79
2023/09/06 04:08:50;;;;;;;;;;;;;;;14.96;72.66;100235.34;1083971;54;19991;-79
2023/09/06 04:09:56;;;;;;;;;;;;;;;14.93;72.68;100227.59;1083047;54;19973;-79
2023/09/06 04:10:59;;;;;;;;;;;;;;;14.90;72.71;100230.66;1084792;39;20555;-78
2023/09/06 04:12:00;;;;;;;;;;;;;;;14.89;72.58;100229.78;1085420;39;20520;-79
2023/09/06 04:13:03;;;;;;;;;;;;;;;14.90;72.57;100233.34;1084082;47;19977;-79
2023/09/06 04:14:04;;;;;;;;;;;;;;;14.84;72.74;100234.84;1084035;47;19946;-79
2023/09/06 04:15:09;;;;;;;;;;;;;;;14.86;72.65;100234.66;1084430;54;19974;-79
2023/09/06 04:16:13;;;;;;;;;;;;;;;14.83;72.88;100241.25;1083859;47;19951;-79
2023/09/06 04:17:17;;;;;;;;;;;;;;;14.79;72.90;100248.81;1083906;47;19966;-78
2023/09/06 04:18:18;;;;;;;;;;;;;;;14.86;72.98;100243.59;1084131;47;19947;-78
2023/09/06 04:19:22;;;;;;;;;;;;;;;14.85;72.81;100241.91;1084275;47;19999;-79
2023/09/06 04:20:23;;;;;;;;;;;;;;;14.80;73.22;100245.13;1084543;47;19973;-78
2023/09/06 04:21:24;;;;;;;;;;;;;;;14.78;73.17;100244.44;1084542;54;19950;-80
2023/09/06 04:22:27;;;;;;;;;;;;;;;14.72;73.52;100242.41;1084002;47;20755;-79
2023/09/06 04:23:27;;;;;;;;;;;;;;;14.73;73.96;100245.94;1084393;47;19950;-78
2023/09/06 04:24:31;;;;;;;;;;;;;;;14.72;73.35;100245.13;1084108;47;19971;-79
2023/09/06 04:25:33;;;;;;;;;;;;;;;14.75;73.26;100243.94;1086891;39;20792;-78
2023/09/06 04:26:38;;;;;;;;;;;;;;;14.75;73.44;100243.94;1084394;47;19981;-78
2023/09/06 04:27:39;;;;;;;;;;;;;;;14.75;73.66;100247.44;1084519;54;19954;-80
2023/09/06 04:28:42;;;;;;;;;;;;;;;14.74;73.62;100247.63;1084272;54;19958;-79
2023/09/06 04:29:43;;;;;;;;;;;;;;;14.77;73.72;100250.81;1084400;54;19951;-78
2023/09/06 04:30:47;;;;;;;;;;;;;;;14.73;73.79;100235.19;1084397;47;20070;-79
2023/09/06 04:31:51;;;;;;;;;;;;;;;14.75;73.97;100250.13;1084239;47;20485;-78
2023/09/06 04:32:54;;;;;;;;;;;;;;;14.78;73.83;100249.00;1084356;47;19950;-80
2023/09/06 04:33:55;;;;;;;;;;;;;;;14.80;73.42;100252.31;1084743;54;19946;-78
2023/09/06 04:34:59;;;;;;;;;;;;;;;14.79;73.79;100240.72;1083471;47;19974;-80
2023/09/06 04:36:01;;;;;;;;;;;;;;;14.84;73.27;100242.06;1084880;39;20779;-78
2023/09/06 04:37:04;;;;;;;;;;;;;;;14.88;73.02;100238.03;1084218;47;20014;-78
2023/09/06 04:38:05;;;;;;;;;;;;;;;14.96;72.95;100252.34;1084569;39;20360;-79
2023/09/06 04:39:10;;;;;;;;;;;;;;;15.01;72.46;100249.16;1084109;54;19972;-79
2023/09/06 04:40:11;;;;;;;;;;;;;;;15.08;72.35;100258.22;1084004;54;19965;-79
2023/09/06 04:41:15;;;;;;;;;;;;;;;15.11;72.10;100248.97;1086666;31;20520;-79
2023/09/06 04:42:15;;;;;;;;;;;;;;;15.17;71.67;100252.84;1084698;47;19975;-79
2023/09/06 04:43:19;;;;;;;;;;;;;;;15.20;71.78;100250.63;1084437;39;20750;-79
2023/09/06 04:44:24;;;;;;;;;;;;;;;15.23;71.25;100253.00;1083812;47;19950;-78
2023/09/06 04:45:27;;;;;;;;;;;;;;;15.28;71.17;100247.09;1084097;47;19976;-79
2023/09/06 04:46:28;;;;;;;;;;;;;;;15.30;71.11;100253.16;1083956;46;19950;-78
2023/09/06 04:47:31;;;;;;;;;;;;;;;15.32;70.75;100250.28;1083868;54;19974;-78
2023/09/06 04:48:36;;;;;;;;;;;;;;;15.36;70.95;100247.09;1084113;54;19950;-79
2023/09/06 04:49:36;;;;;;;;;;;;;;;15.40;70.46;100256.50;1084414;54;20027;-78
2023/09/06 04:50:40;;;;;;;;;;;;;;;15.45;70.34;100245.19;1084370;39;20489;-78
2023/09/06 04:51:41;;;;;;;;;;;;;;;15.43;70.49;100247.25;1083852;47;20592;-79
2023/09/06 04:52:46;;;;;;;;;;;;;;;15.41;70.48;100244.72;1083934;47;19963;-78
2023/09/06 04:53:48;;;;;;;;;;;;;;;15.46;70.47;100246.88;1084098;54;20030;-79
2023/09/06 04:54:49;;;;;;;;;;;;;;;15.49;70.19;100251.13;1083904;47;19947;-78
2023/09/06 04:55:52;;;;;;;;;;;;;;;15.42;70.44;100245.56;1084641;54;19977;-79
2023/09/06 04:56:53;;;;;;;;;;;;;;;15.46;70.18;100254.13;1084565;54;19972;-79
2023/09/06 04:57:57;;;;;;;;;;;;;;;15.44;70.06;100254.31;1083931;51;19992;-79
2023/09/06 04:58:58;;;;;;;;;;;;;;;15.30;70.65;100253.16;1083949;47;19951;-80
2023/09/06 05:00:03;;;;;;;;;;;;;;;15.31;70.94;100248.59;1083501;47;20067;-79
2023/09/06 05:01:05;;;;;;;;;;;;;;;15.23;71.16;100253.00;1083673;54;19953;-79
2023/09/06 05:02:08;;;;;;;;;;;;;;;15.19;71.30;100258.91;1084751;54;20434;-79
2023/09/06 05:03:12;;;;;;;;;;;;;;;15.09;71.46;100257.22;1084505;47;20862;-79
2023/09/06 05:04:15;;;;;;;;;;;;;;;15.05;71.74;100255.88;1083739;47;19950;-78
2023/09/06 05:05:16;;;;;;;;;;;;;;;15.02;72.07;100258.88;1083643;54;19967;-78
2023/09/06 05:06:20;;;;;;;;;;;;;;;14.97;72.00;100259.41;1084080;54;19974;-78
2023/09/06 05:07:21;;;;;;;;;;;;;;;14.95;72.24;100260.56;1084427;54;20022;-79
2023/09/06 05:08:25;;;;;;;;;;;;;;;14.93;72.47;100265.28;1084473;46;20455;-78
2023/09/06 05:09:26;;;;;;;;;;;;;;;14.89;72.65;100261.25;1084106;47;19951;-78
2023/09/06 05:10:29;;;;;;;;;;;;;;;14.89;72.51;100269.34;1084796;47;19974;-79
2023/09/06 05:11:29;;;;;;;;;;;;;;;14.85;72.61;100263.44;1085166;39;20406;-79
2023/09/06 05:12:33;;;;;;;;;;;;;;;14.85;72.55;100266.13;1083806;47;19972;-79
2023/09/06 05:13:35;;;;;;;;;;;;;;;14.85;72.90;100271.53;1084306;47;19950;-79
2023/09/06 05:14:39;;;;;;;;;;;;;;;14.90;72.55;100268.31;1084742;47;19947;-79
2023/09/06 05:15:39;;;;;;;;;;;;;;;14.94;72.24;100275.03;1083521;54;19950;-79
2023/09/06 05:16:43;;;;;;;;;;;;;;;14.95;72.20;100274.03;1084614;31;20465;-78
2023/09/06 05:17:43;;;;;;;;;;;;;;;14.93;72.68;100268.84;1084209;47;19946;-79
2023/09/06 05:18:49;;;;;;;;;;;;;;;14.93;72.70;100274.22;1084888;54;20006;-79
2023/09/06 05:19:50;;;;;;;;;;;;;;;14.90;72.56;100276.41;1084416;47;19991;-78
2023/09/06 05:20:55;;;;;;;;;;;;;;;14.90;73.09;100273.72;1083999;47;19954;-78
2023/09/06 05:21:56;;;;;;;;;;;;;;;14.88;73.07;100271.16;1084259;39;20497;-78
2023/09/06 05:23:01;;;;;;;;;;;;;;;14.92;73.04;100272.53;1083995;54;20014;-79